sensor_id;sensor_type;location;lat;lon;timestamp;P1;durP1;ratioP1;P2;durP2;ratioP2
3712;SDS011;1872;51.406;6.856;2023-08-31T00:01:43;6.93;;;4.77;;
3712;SDS011;1872;51.406;6.856;2023-08-31T00:04:09;4.80;;;4.30;;
3712;SDS011;1872;51.406;6.856;2023-08-31T00:06:39;5.23;;;4.30;;
3712;SDS011;1872;51.406;6.856;2023-08-31T00:09:06;6.27;;;4.20;;
3712;SDS011;1872;51.406;6.856;2023-08-31T00:11:35;4.90;;;4.23;;
3712;SDS011;1872;51.406;6.856;2023-08-31T00:14:02;4.93;;;3.80;;
3712;SDS011;1872;51.406;6.856;2023-08-31T00:16:28;5.60;;;4.10;;
3712;SDS011;1872;51.406;6.856;2023-08-31T00:18:55;5.13;;;4.37;;
3712;SDS011;1872;51.406;6.856;2023-08-31T00:21:21;5.40;;;4.57;;
3712;SDS011;1872;51.406;6.856;2023-08-31T00:23:47;7.60;;;4.60;;
3712;SDS011;1872;51.406;6.856;2023-08-31T00:26:13;6.37;;;5.27;;
3712;SDS011;1872;51.406;6.856;2023-08-31T00:28:40;5.80;;;5.20;;
3712;SDS011;1872;51.406;6.856;2023-08-31T00:31:09;8.07;;;5.57;;
3712;SDS011;1872;51.406;6.856;2023-08-31T00:33:35;7.73;;;4.73;;
3712;SDS011;1872;51.406;6.856;2023-08-31T00:36:03;6.40;;;5.27;;
3712;SDS011;1872;51.406;6.856;2023-08-31T00:38:31;9.00;;;5.57;;
3712;SDS011;1872;51.406;6.856;2023-08-31T00:40:57;7.60;;;5.17;;
3712;SDS011;1872;51.406;6.856;2023-08-31T00:43:23;6.90;;;6.13;;
3712;SDS011;1872;51.406;6.856;2023-08-31T00:45:50;5.43;;;4.93;;
3712;SDS011;1872;51.406;6.856;2023-08-31T00:48:18;7.73;;;5.10;;
3712;SDS011;1872;51.406;6.856;2023-08-31T00:50:46;6.47;;;5.83;;
3712;SDS011;1872;51.406;6.856;2023-08-31T00:53:14;6.20;;;5.60;;
3712;SDS011;1872;51.406;6.856;2023-08-31T00:55:41;8.40;;;4.97;;
3712;SDS011;1872;51.406;6.856;2023-08-31T00:58:08;7.37;;;5.13;;
3712;SDS011;1872;51.406;6.856;2023-08-31T01:00:46;6.00;;;5.40;;
3712;SDS011;1872;51.406;6.856;2023-08-31T01:03:42;6.07;;;5.50;;
3712;SDS011;1872;51.406;6.856;2023-08-31T01:12:11;6.00;;;5.13;;
3712;SDS011;1872;51.406;6.856;2023-08-31T01:14:44;6.83;;;6.10;;
3712;SDS011;1872;51.406;6.856;2023-08-31T01:17:14;7.73;;;6.07;;
3712;SDS011;1872;51.406;6.856;2023-08-31T01:22:16;9.40;;;5.63;;
3712;SDS011;1872;51.406;6.856;2023-08-31T01:24:52;8.07;;;5.67;;
3712;SDS011;1872;51.406;6.856;2023-08-31T01:27:19;6.00;;;5.40;;
3712;SDS011;1872;51.406;6.856;2023-08-31T01:29:45;6.60;;;5.53;;
3712;SDS011;1872;51.406;6.856;2023-08-31T01:32:11;6.63;;;6.00;;
3712;SDS011;1872;51.406;6.856;2023-08-31T01:34:37;6.77;;;6.00;;
3712;SDS011;1872;51.406;6.856;2023-08-31T01:37:05;8.73;;;6.00;;
3712;SDS011;1872;51.406;6.856;2023-08-31T01:39:58;7.40;;;5.83;;
3712;SDS011;1872;51.406;6.856;2023-08-31T01:42:29;6.73;;;6.10;;
3712;SDS011;1872;51.406;6.856;2023-08-31T01:44:56;7.13;;;6.20;;
3712;SDS011;1872;51.406;6.856;2023-08-31T01:47:23;8.53;;;5.80;;
3712;SDS011;1872;51.406;6.856;2023-08-31T01:49:50;9.00;;;6.20;;
3712;SDS011;1872;51.406;6.856;2023-08-31T01:52:17;6.93;;;6.23;;
3712;SDS011;1872;51.406;6.856;2023-08-31T01:54:42;8.20;;;6.87;;
3712;SDS011;1872;51.406;6.856;2023-08-31T01:57:08;10.93;;;6.60;;
3712;SDS011;1872;51.406;6.856;2023-08-31T01:59:34;8.30;;;6.20;;
3712;SDS011;1872;51.406;6.856;2023-08-31T02:02:00;6.97;;;6.27;;
3712;SDS011;1872;51.406;6.856;2023-08-31T02:04:26;8.50;;;6.40;;
3712;SDS011;1872;51.406;6.856;2023-08-31T02:06:52;8.43;;;6.53;;
3712;SDS011;1872;51.406;6.856;2023-08-31T02:09:17;8.43;;;6.80;;
3712;SDS011;1872;51.406;6.856;2023-08-31T02:11:43;7.97;;;6.90;;
3712;SDS011;1872;51.406;6.856;2023-08-31T02:14:09;7.30;;;6.40;;
3712;SDS011;1872;51.406;6.856;2023-08-31T02:16:34;7.93;;;7.13;;
3712;SDS011;1872;51.406;6.856;2023-08-31T02:19:00;9.17;;;6.60;;
3712;SDS011;1872;51.406;6.856;2023-08-31T02:21:25;9.10;;;6.60;;
3712;SDS011;1872;51.406;6.856;2023-08-31T02:23:51;9.60;;;6.73;;
3712;SDS011;1872;51.406;6.856;2023-08-31T02:26:17;7.60;;;6.70;;
3712;SDS011;1872;51.406;6.856;2023-08-31T02:28:43;8.37;;;6.90;;
3712;SDS011;1872;51.406;6.856;2023-08-31T02:31:09;7.37;;;6.10;;
3712;SDS011;1872;51.406;6.856;2023-08-31T02:33:36;11.07;;;6.47;;
3712;SDS011;1872;51.406;6.856;2023-08-31T02:36:02;6.90;;;6.20;;
3712;SDS011;1872;51.406;6.856;2023-08-31T02:38:28;6.50;;;5.90;;
3712;SDS011;1872;51.406;6.856;2023-08-31T02:40:53;10.83;;;6.50;;
3712;SDS011;1872;51.406;6.856;2023-08-31T02:43:19;9.57;;;6.03;;
3712;SDS011;1872;51.406;6.856;2023-08-31T02:45:45;9.93;;;6.70;;
3712;SDS011;1872;51.406;6.856;2023-08-31T02:48:10;12.07;;;8.20;;
3712;SDS011;1872;51.406;6.856;2023-08-31T02:50:38;7.87;;;7.03;;
3712;SDS011;1872;51.406;6.856;2023-08-31T02:53:04;7.40;;;5.90;;
3712;SDS011;1872;51.406;6.856;2023-08-31T02:55:33;7.17;;;6.47;;
3712;SDS011;1872;51.406;6.856;2023-08-31T02:57:59;7.37;;;6.40;;
3712;SDS011;1872;51.406;6.856;2023-08-31T03:00:25;7.07;;;6.40;;
3712;SDS011;1872;51.406;6.856;2023-08-31T03:02:51;8.03;;;6.07;;
3712;SDS011;1872;51.406;6.856;2023-08-31T03:05:17;7.60;;;6.47;;
3712;SDS011;1872;51.406;6.856;2023-08-31T03:07:43;7.33;;;6.43;;
3712;SDS011;1872;51.406;6.856;2023-08-31T03:10:09;7.43;;;6.50;;
3712;SDS011;1872;51.406;6.856;2023-08-31T03:12:38;7.90;;;6.73;;
3712;SDS011;1872;51.406;6.856;2023-08-31T03:15:05;9.90;;;7.20;;
3712;SDS011;1872;51.406;6.856;2023-08-31T03:17:31;7.80;;;7.00;;
3712;SDS011;1872;51.406;6.856;2023-08-31T03:19:57;11.67;;;7.17;;
3712;SDS011;1872;51.406;6.856;2023-08-31T03:22:22;6.90;;;5.87;;
3712;SDS011;1872;51.406;6.856;2023-08-31T03:24:48;7.53;;;6.73;;
3712;SDS011;1872;51.406;6.856;2023-08-31T03:27:14;7.97;;;6.97;;
3712;SDS011;1872;51.406;6.856;2023-08-31T03:29:41;7.50;;;6.70;;
3712;SDS011;1872;51.406;6.856;2023-08-31T03:32:06;7.13;;;6.27;;
3712;SDS011;1872;51.406;6.856;2023-08-31T03:34:32;7.60;;;6.80;;
3712;SDS011;1872;51.406;6.856;2023-08-31T03:36:58;12.93;;;7.80;;
3712;SDS011;1872;51.406;6.856;2023-08-31T03:39:24;9.17;;;7.10;;
3712;SDS011;1872;51.406;6.856;2023-08-31T03:41:51;9.47;;;7.23;;
3712;SDS011;1872;51.406;6.856;2023-08-31T03:44:16;8.30;;;7.23;;
3712;SDS011;1872;51.406;6.856;2023-08-31T03:46:42;8.70;;;7.37;;
3712;SDS011;1872;51.406;6.856;2023-08-31T03:49:08;7.37;;;6.50;;
3712;SDS011;1872;51.406;6.856;2023-08-31T03:51:34;7.80;;;6.27;;
3712;SDS011;1872;51.406;6.856;2023-08-31T03:54:00;8.43;;;5.80;;
3712;SDS011;1872;51.406;6.856;2023-08-31T03:56:26;7.07;;;5.80;;
3712;SDS011;1872;51.406;6.856;2023-08-31T03:58:52;7.23;;;6.40;;
3712;SDS011;1872;51.406;6.856;2023-08-31T04:01:18;6.57;;;5.70;;
3712;SDS011;1872;51.406;6.856;2023-08-31T04:03:45;7.27;;;5.60;;
3712;SDS011;1872;51.406;6.856;2023-08-31T04:06:10;6.90;;;5.70;;
3712;SDS011;1872;51.406;6.856;2023-08-31T04:08:36;6.40;;;5.80;;
3712;SDS011;1872;51.406;6.856;2023-08-31T04:11:02;7.30;;;6.60;;
3712;SDS011;1872;51.406;6.856;2023-08-31T04:13:28;8.97;;;6.67;;
3712;SDS011;1872;51.406;6.856;2023-08-31T04:15:55;7.97;;;5.67;;
3712;SDS011;1872;51.406;6.856;2023-08-31T04:18:21;6.60;;;5.90;;
3712;SDS011;1872;51.406;6.856;2023-08-31T04:20:51;6.17;;;5.37;;
3712;SDS011;1872;51.406;6.856;2023-08-31T04:23:17;7.60;;;6.67;;
3712;SDS011;1872;51.406;6.856;2023-08-31T04:25:46;9.43;;;6.27;;
3712;SDS011;1872;51.406;6.856;2023-08-31T04:28:13;7.10;;;5.97;;
3712;SDS011;1872;51.406;6.856;2023-08-31T04:30:40;7.90;;;6.20;;
3712;SDS011;1872;51.406;6.856;2023-08-31T04:33:06;6.20;;;5.13;;
3712;SDS011;1872;51.406;6.856;2023-08-31T04:35:32;7.83;;;6.40;;
3712;SDS011;1872;51.406;6.856;2023-08-31T04:37:58;6.53;;;5.83;;
3712;SDS011;1872;51.406;6.856;2023-08-31T04:40:24;6.77;;;6.10;;
3712;SDS011;1872;51.406;6.856;2023-08-31T04:42:49;6.77;;;6.03;;
3712;SDS011;1872;51.406;6.856;2023-08-31T04:45:15;6.00;;;5.40;;
3712;SDS011;1872;51.406;6.856;2023-08-31T04:47:41;10.47;;;6.00;;
3712;SDS011;1872;51.406;6.856;2023-08-31T04:50:07;7.00;;;6.27;;
3712;SDS011;1872;51.406;6.856;2023-08-31T04:52:34;8.03;;;6.20;;
3712;SDS011;1872;51.406;6.856;2023-08-31T04:55:00;6.70;;;6.10;;
3712;SDS011;1872;51.406;6.856;2023-08-31T04:57:26;8.00;;;5.70;;
3712;SDS011;1872;51.406;6.856;2023-08-31T04:59:53;9.40;;;6.63;;
3712;SDS011;1872;51.406;6.856;2023-08-31T05:02:19;8.93;;;6.70;;
3712;SDS011;1872;51.406;6.856;2023-08-31T05:04:44;7.80;;;6.27;;
3712;SDS011;1872;51.406;6.856;2023-08-31T05:07:10;7.10;;;6.20;;
3712;SDS011;1872;51.406;6.856;2023-08-31T05:09:36;7.23;;;6.47;;
3712;SDS011;1872;51.406;6.856;2023-08-31T05:12:02;7.87;;;7.03;;
3712;SDS011;1872;51.406;6.856;2023-08-31T05:14:28;8.80;;;6.00;;
3712;SDS011;1872;51.406;6.856;2023-08-31T05:16:54;8.50;;;7.60;;
3712;SDS011;1872;51.406;6.856;2023-08-31T05:19:20;8.73;;;7.37;;
3712;SDS011;1872;51.406;6.856;2023-08-31T05:21:46;9.77;;;6.57;;
3712;SDS011;1872;51.406;6.856;2023-08-31T05:24:11;7.50;;;6.70;;
3712;SDS011;1872;51.406;6.856;2023-08-31T05:26:38;7.57;;;6.57;;
3712;SDS011;1872;51.406;6.856;2023-08-31T05:29:04;8.10;;;6.20;;
3712;SDS011;1872;51.406;6.856;2023-08-31T05:31:30;8.30;;;6.37;;
3712;SDS011;1872;51.406;6.856;2023-08-31T05:33:56;7.13;;;6.43;;
3712;SDS011;1872;51.406;6.856;2023-08-31T05:36:22;8.30;;;6.73;;
3712;SDS011;1872;51.406;6.856;2023-08-31T05:38:48;7.60;;;6.43;;
3712;SDS011;1872;51.406;6.856;2023-08-31T05:41:13;7.47;;;6.70;;
3712;SDS011;1872;51.406;6.856;2023-08-31T05:43:39;8.23;;;7.27;;
3712;SDS011;1872;51.406;6.856;2023-08-31T05:46:05;11.23;;;7.20;;
3712;SDS011;1872;51.406;6.856;2023-08-31T05:48:32;9.20;;;6.87;;
3712;SDS011;1872;51.406;6.856;2023-08-31T05:50:58;8.80;;;6.73;;
3712;SDS011;1872;51.406;6.856;2023-08-31T05:53:24;8.73;;;6.77;;
3712;SDS011;1872;51.406;6.856;2023-08-31T05:55:50;13.03;;;7.93;;
3712;SDS011;1872;51.406;6.856;2023-08-31T05:58:16;10.30;;;7.07;;
3712;SDS011;1872;51.406;6.856;2023-08-31T06:00:41;8.73;;;7.50;;
3712;SDS011;1872;51.406;6.856;2023-08-31T06:03:07;9.07;;;6.80;;
3712;SDS011;1872;51.406;6.856;2023-08-31T06:05:32;9.77;;;6.87;;
3712;SDS011;1872;51.406;6.856;2023-08-31T06:07:59;9.80;;;7.50;;
3712;SDS011;1872;51.406;6.856;2023-08-31T06:10:24;10.30;;;8.00;;
3712;SDS011;1872;51.406;6.856;2023-08-31T06:12:50;8.50;;;7.30;;
3712;SDS011;1872;51.406;6.856;2023-08-31T06:15:16;13.20;;;8.27;;
3712;SDS011;1872;51.406;6.856;2023-08-31T06:17:42;8.70;;;7.27;;
3712;SDS011;1872;51.406;6.856;2023-08-31T06:20:08;10.27;;;7.70;;
3712;SDS011;1872;51.406;6.856;2023-08-31T06:22:35;8.93;;;7.70;;
3712;SDS011;1872;51.406;6.856;2023-08-31T06:25:01;12.23;;;8.27;;
3712;SDS011;1872;51.406;6.856;2023-08-31T06:27:29;10.43;;;8.10;;
3712;SDS011;1872;51.406;6.856;2023-08-31T06:29:54;8.03;;;7.23;;
3712;SDS011;1872;51.406;6.856;2023-08-31T06:32:21;9.73;;;8.60;;
3712;SDS011;1872;51.406;6.856;2023-08-31T06:34:48;8.83;;;7.93;;
3712;SDS011;1872;51.406;6.856;2023-08-31T06:37:13;7.00;;;6.30;;
3712;SDS011;1872;51.406;6.856;2023-08-31T06:39:39;8.67;;;6.90;;
3712;SDS011;1872;51.406;6.856;2023-08-31T06:42:06;6.87;;;6.17;;
3712;SDS011;1872;51.406;6.856;2023-08-31T06:44:31;7.90;;;7.20;;
3712;SDS011;1872;51.406;6.856;2023-08-31T06:46:57;6.80;;;6.20;;
3712;SDS011;1872;51.406;6.856;2023-08-31T06:49:23;7.10;;;6.07;;
3712;SDS011;1872;51.406;6.856;2023-08-31T06:51:49;8.30;;;6.60;;
3712;SDS011;1872;51.406;6.856;2023-08-31T06:54:14;6.90;;;6.00;;
3712;SDS011;1872;51.406;6.856;2023-08-31T06:56:40;8.50;;;6.53;;
3712;SDS011;1872;51.406;6.856;2023-08-31T06:59:06;11.53;;;5.63;;
3712;SDS011;1872;51.406;6.856;2023-08-31T07:01:31;6.80;;;5.40;;
3712;SDS011;1872;51.406;6.856;2023-08-31T07:04:00;8.57;;;5.80;;
3712;SDS011;1872;51.406;6.856;2023-08-31T07:06:26;5.93;;;5.40;;
3712;SDS011;1872;51.406;6.856;2023-08-31T07:08:51;5.67;;;5.07;;
3712;SDS011;1872;51.406;6.856;2023-08-31T07:11:17;6.13;;;5.63;;
3712;SDS011;1872;51.406;6.856;2023-08-31T07:13:43;5.60;;;4.90;;
3712;SDS011;1872;51.406;6.856;2023-08-31T07:16:09;6.33;;;5.73;;
3712;SDS011;1872;51.406;6.856;2023-08-31T07:18:35;5.40;;;4.60;;
3712;SDS011;1872;51.406;6.856;2023-08-31T07:21:01;5.07;;;4.60;;
3712;SDS011;1872;51.406;6.856;2023-08-31T07:23:28;8.53;;;4.97;;
3712;SDS011;1872;51.406;6.856;2023-08-31T07:25:56;6.03;;;5.20;;
3712;SDS011;1872;51.406;6.856;2023-08-31T07:28:26;5.40;;;4.83;;
3712;SDS011;1872;51.406;6.856;2023-08-31T07:31:04;6.93;;;4.67;;
3712;SDS011;1872;51.406;6.856;2023-08-31T07:33:31;4.23;;;3.80;;
3712;SDS011;1872;51.406;6.856;2023-08-31T07:35:58;5.03;;;4.53;;
3712;SDS011;1872;51.406;6.856;2023-08-31T07:38:24;5.83;;;4.20;;
3712;SDS011;1872;51.406;6.856;2023-08-31T07:40:51;4.50;;;4.20;;
3712;SDS011;1872;51.406;6.856;2023-08-31T07:43:17;5.23;;;4.10;;
3712;SDS011;1872;51.406;6.856;2023-08-31T07:45:42;4.50;;;4.10;;
3712;SDS011;1872;51.406;6.856;2023-08-31T07:48:08;5.03;;;4.53;;
3712;SDS011;1872;51.406;6.856;2023-08-31T07:50:34;4.43;;;4.03;;
3712;SDS011;1872;51.406;6.856;2023-08-31T07:52:59;4.43;;;3.20;;
3712;SDS011;1872;51.406;6.856;2023-08-31T07:55:25;4.20;;;3.73;;
3712;SDS011;1872;51.406;6.856;2023-08-31T07:57:52;7.10;;;4.57;;
3712;SDS011;1872;51.406;6.856;2023-08-31T08:00:18;4.10;;;3.70;;
3712;SDS011;1872;51.406;6.856;2023-08-31T08:02:46;7.53;;;4.47;;
3712;SDS011;1872;51.406;6.856;2023-08-31T08:05:12;5.17;;;3.87;;
3712;SDS011;1872;51.406;6.856;2023-08-31T08:07:38;5.13;;;4.63;;
3712;SDS011;1872;51.406;6.856;2023-08-31T08:10:04;4.77;;;4.30;;
3712;SDS011;1872;51.406;6.856;2023-08-31T08:12:40;5.00;;;3.90;;
3712;SDS011;1872;51.406;6.856;2023-08-31T08:15:10;4.77;;;4.00;;
3712;SDS011;1872;51.406;6.856;2023-08-31T08:17:37;4.40;;;3.33;;
3712;SDS011;1872;51.406;6.856;2023-08-31T08:20:03;6.37;;;4.47;;
3712;SDS011;1872;51.406;6.856;2023-08-31T08:22:30;2.53;;;1.90;;
3712;SDS011;1872;51.406;6.856;2023-08-31T08:24:55;3.50;;;3.20;;
3712;SDS011;1872;51.406;6.856;2023-08-31T08:27:21;4.63;;;4.13;;
3712;SDS011;1872;51.406;6.856;2023-08-31T08:29:48;6.13;;;4.40;;
3712;SDS011;1872;51.406;6.856;2023-08-31T08:32:15;4.90;;;4.40;;
3712;SDS011;1872;51.406;6.856;2023-08-31T08:34:40;3.73;;;3.43;;
3712;SDS011;1872;51.406;6.856;2023-08-31T08:37:06;5.23;;;4.60;;
3712;SDS011;1872;51.406;6.856;2023-08-31T08:39:32;9.20;;;4.20;;
3712;SDS011;1872;51.406;6.856;2023-08-31T08:41:58;3.43;;;3.03;;
3712;SDS011;1872;51.406;6.856;2023-08-31T08:44:24;4.53;;;4.07;;
3712;SDS011;1872;51.406;6.856;2023-08-31T08:46:51;3.03;;;2.83;;
3712;SDS011;1872;51.406;6.856;2023-08-31T08:49:18;6.50;;;3.77;;
3712;SDS011;1872;51.406;6.856;2023-08-31T08:51:47;3.80;;;3.00;;
3712;SDS011;1872;51.406;6.856;2023-08-31T08:54:13;4.93;;;3.93;;
3712;SDS011;1872;51.406;6.856;2023-08-31T08:56:39;6.60;;;4.67;;
3712;SDS011;1872;51.406;6.856;2023-08-31T08:59:05;4.50;;;4.10;;
3712;SDS011;1872;51.406;6.856;2023-08-31T09:01:31;5.50;;;5.00;;
3712;SDS011;1872;51.406;6.856;2023-08-31T09:03:59;4.87;;;4.00;;
3712;SDS011;1872;51.406;6.856;2023-08-31T09:06:26;4.10;;;3.80;;
3712;SDS011;1872;51.406;6.856;2023-08-31T09:08:56;5.80;;;4.60;;
3712;SDS011;1872;51.406;6.856;2023-08-31T09:11:22;4.67;;;3.73;;
3712;SDS011;1872;51.406;6.856;2023-08-31T09:13:49;4.53;;;4.10;;
3712;SDS011;1872;51.406;6.856;2023-08-31T09:16:25;4.57;;;4.17;;
3712;SDS011;1872;51.406;6.856;2023-08-31T09:18:53;4.40;;;3.57;;
3712;SDS011;1872;51.406;6.856;2023-08-31T09:21:19;3.10;;;2.83;;
3712;SDS011;1872;51.406;6.856;2023-08-31T09:23:57;4.20;;;3.07;;
3712;SDS011;1872;51.406;6.856;2023-08-31T09:26:23;4.70;;;4.13;;
3712;SDS011;1872;51.406;6.856;2023-08-31T09:28:49;3.73;;;3.37;;
3712;SDS011;1872;51.406;6.856;2023-08-31T09:31:15;4.90;;;3.80;;
3712;SDS011;1872;51.406;6.856;2023-08-31T09:33:49;4.27;;;2.80;;
3712;SDS011;1872;51.406;6.856;2023-08-31T09:36:16;5.00;;;3.97;;
3712;SDS011;1872;51.406;6.856;2023-08-31T09:38:42;4.50;;;4.10;;
3712;SDS011;1872;51.406;6.856;2023-08-31T09:41:08;3.50;;;3.20;;
3712;SDS011;1872;51.406;6.856;2023-08-31T09:43:34;5.80;;;3.83;;
3712;SDS011;1872;51.406;6.856;2023-08-31T09:46:02;5.00;;;4.50;;
3712;SDS011;1872;51.406;6.856;2023-08-31T09:48:29;5.70;;;4.43;;
3712;SDS011;1872;51.406;6.856;2023-08-31T09:50:55;3.37;;;3.07;;
3712;SDS011;1872;51.406;6.856;2023-08-31T09:53:22;7.90;;;4.50;;
3712;SDS011;1872;51.406;6.856;2023-08-31T09:55:49;6.53;;;4.10;;
3712;SDS011;1872;51.406;6.856;2023-08-31T09:58:20;3.70;;;3.27;;
3712;SDS011;1872;51.406;6.856;2023-08-31T10:00:46;4.13;;;3.80;;
3712;SDS011;1872;51.406;6.856;2023-08-31T10:03:14;3.90;;;3.27;;
3712;SDS011;1872;51.406;6.856;2023-08-31T10:05:41;4.37;;;3.47;;
3712;SDS011;1872;51.406;6.856;2023-08-31T10:08:08;3.40;;;3.07;;
3712;SDS011;1872;51.406;6.856;2023-08-31T10:10:34;3.97;;;3.37;;
3712;SDS011;1872;51.406;6.856;2023-08-31T10:13:02;3.43;;;2.97;;
3712;SDS011;1872;51.406;6.856;2023-08-31T10:15:31;3.23;;;2.93;;
3712;SDS011;1872;51.406;6.856;2023-08-31T10:17:59;3.00;;;2.70;;
3712;SDS011;1872;51.406;6.856;2023-08-31T10:20:26;3.57;;;3.07;;
3712;SDS011;1872;51.406;6.856;2023-08-31T10:23:05;5.17;;;3.30;;
3712;SDS011;1872;51.406;6.856;2023-08-31T10:31:22;3.20;;;2.90;;
3712;SDS011;1872;51.406;6.856;2023-08-31T10:34:01;3.60;;;2.63;;
3712;SDS011;1872;51.406;6.856;2023-08-31T10:39:05;5.07;;;3.67;;
3712;SDS011;1872;51.406;6.856;2023-08-31T10:41:41;3.00;;;2.70;;
3712;SDS011;1872;51.406;6.856;2023-08-31T10:44:20;4.50;;;3.60;;
3712;SDS011;1872;51.406;6.856;2023-08-31T10:46:47;3.63;;;3.33;;
3712;SDS011;1872;51.406;6.856;2023-08-31T10:49:14;3.90;;;2.87;;
3712;SDS011;1872;51.406;6.856;2023-08-31T10:51:45;5.73;;;3.40;;
3712;SDS011;1872;51.406;6.856;2023-08-31T10:54:19;4.77;;;3.43;;
3712;SDS011;1872;51.406;6.856;2023-08-31T10:59:40;4.03;;;3.60;;
3712;SDS011;1872;51.406;6.856;2023-08-31T11:02:35;3.20;;;2.90;;
3712;SDS011;1872;51.406;6.856;2023-08-31T11:05:02;4.33;;;3.37;;
3712;SDS011;1872;51.406;6.856;2023-08-31T11:07:35;3.77;;;3.47;;
3712;SDS011;1872;51.406;6.856;2023-08-31T11:12:49;3.83;;;2.80;;
3712;SDS011;1872;51.406;6.856;2023-08-31T11:15:18;3.50;;;3.20;;
3712;SDS011;1872;51.406;6.856;2023-08-31T11:17:46;3.70;;;3.27;;
3712;SDS011;1872;51.406;6.856;2023-08-31T11:20:13;5.00;;;3.67;;
3712;SDS011;1872;51.406;6.856;2023-08-31T11:22:43;3.80;;;3.50;;
3712;SDS011;1872;51.406;6.856;2023-08-31T11:25:11;3.80;;;3.50;;
3712;SDS011;1872;51.406;6.856;2023-08-31T11:27:38;6.60;;;4.23;;
3712;SDS011;1872;51.406;6.856;2023-08-31T11:30:11;3.93;;;3.53;;
3712;SDS011;1872;51.406;6.856;2023-08-31T11:32:46;3.87;;;3.57;;
3712;SDS011;1872;51.406;6.856;2023-08-31T11:38:35;3.17;;;2.97;;
3712;SDS011;1872;51.406;6.856;2023-08-31T11:41:00;4.20;;;3.10;;
3712;SDS011;1872;51.406;6.856;2023-08-31T11:43:26;3.30;;;3.00;;
3712;SDS011;1872;51.406;6.856;2023-08-31T11:45:52;4.70;;;3.13;;
3712;SDS011;1872;51.406;6.856;2023-08-31T11:48:18;5.10;;;3.70;;
3712;SDS011;1872;51.406;6.856;2023-08-31T11:50:44;4.63;;;3.10;;
3712;SDS011;1872;51.406;6.856;2023-08-31T11:53:11;3.83;;;3.40;;
3712;SDS011;1872;51.406;6.856;2023-08-31T11:55:36;2.97;;;2.77;;
3712;SDS011;1872;51.406;6.856;2023-08-31T11:58:15;4.50;;;3.07;;
3712;SDS011;1872;51.406;6.856;2023-08-31T12:00:42;4.53;;;3.97;;
3712;SDS011;1872;51.406;6.856;2023-08-31T12:03:09;2.93;;;2.73;;
3712;SDS011;1872;51.406;6.856;2023-08-31T12:05:48;3.40;;;3.10;;
3712;SDS011;1872;51.406;6.856;2023-08-31T12:08:23;4.63;;;3.10;;
3712;SDS011;1872;51.406;6.856;2023-08-31T12:10:51;4.23;;;3.30;;
3712;SDS011;1872;51.406;6.856;2023-08-31T12:13:16;3.90;;;3.60;;
3712;SDS011;1872;51.406;6.856;2023-08-31T12:15:42;3.60;;;3.23;;
3712;SDS011;1872;51.406;6.856;2023-08-31T12:18:08;5.77;;;4.07;;
3712;SDS011;1872;51.406;6.856;2023-08-31T12:20:45;5.43;;;3.90;;
3712;SDS011;1872;51.406;6.856;2023-08-31T12:23:20;4.73;;;3.40;;
3712;SDS011;1872;51.406;6.856;2023-08-31T12:25:54;3.83;;;3.53;;
3712;SDS011;1872;51.406;6.856;2023-08-31T12:28:21;3.67;;;3.20;;
3712;SDS011;1872;51.406;6.856;2023-08-31T12:30:51;3.00;;;2.80;;
3712;SDS011;1872;51.406;6.856;2023-08-31T12:33:18;4.70;;;4.30;;
3712;SDS011;1872;51.406;6.856;2023-08-31T12:35:46;4.80;;;3.47;;
3712;SDS011;1872;51.406;6.856;2023-08-31T12:38:13;3.93;;;3.53;;
3712;SDS011;1872;51.406;6.856;2023-08-31T12:40:39;3.80;;;3.40;;
3712;SDS011;1872;51.406;6.856;2023-08-31T12:43:05;5.27;;;4.60;;
3712;SDS011;1872;51.406;6.856;2023-08-31T12:45:31;3.50;;;2.97;;
3712;SDS011;1872;51.406;6.856;2023-08-31T12:47:59;6.63;;;3.70;;
3712;SDS011;1872;51.406;6.856;2023-08-31T12:50:25;4.20;;;3.80;;
3712;SDS011;1872;51.406;6.856;2023-08-31T12:52:51;3.40;;;3.10;;
3712;SDS011;1872;51.406;6.856;2023-08-31T12:55:17;4.97;;;3.77;;
3712;SDS011;1872;51.406;6.856;2023-08-31T12:57:42;4.37;;;3.97;;
3712;SDS011;1872;51.406;6.856;2023-08-31T13:00:09;3.30;;;3.03;;
3712;SDS011;1872;51.406;6.856;2023-08-31T13:02:39;4.13;;;3.83;;
3712;SDS011;1872;51.406;6.856;2023-08-31T13:05:08;5.13;;;3.73;;
3712;SDS011;1872;51.406;6.856;2023-08-31T13:07:35;3.73;;;3.27;;
3712;SDS011;1872;51.406;6.856;2023-08-31T13:10:02;6.00;;;3.80;;
3712;SDS011;1872;51.406;6.856;2023-08-31T13:12:32;3.07;;;2.80;;
3712;SDS011;1872;51.406;6.856;2023-08-31T13:14:59;4.93;;;3.47;;
3712;SDS011;1872;51.406;6.856;2023-08-31T13:17:25;3.27;;;3.07;;
3712;SDS011;1872;51.406;6.856;2023-08-31T13:19:54;5.10;;;3.47;;
3712;SDS011;1872;51.406;6.856;2023-08-31T13:22:22;3.97;;;3.67;;
3712;SDS011;1872;51.406;6.856;2023-08-31T13:24:48;3.80;;;3.33;;
3712;SDS011;1872;51.406;6.856;2023-08-31T13:27:15;4.10;;;3.70;;
3712;SDS011;1872;51.406;6.856;2023-08-31T13:32:34;8.00;;;5.67;;
3712;SDS011;1872;51.406;6.856;2023-08-31T13:35:00;6.27;;;4.87;;
3712;SDS011;1872;51.406;6.856;2023-08-31T13:37:26;6.67;;;4.77;;
3712;SDS011;1872;51.406;6.856;2023-08-31T13:39:52;7.03;;;4.73;;
3712;SDS011;1872;51.406;6.856;2023-08-31T13:42:20;4.00;;;3.53;;
3712;SDS011;1872;51.406;6.856;2023-08-31T13:44:46;4.03;;;3.73;;
3712;SDS011;1872;51.406;6.856;2023-08-31T13:47:12;3.60;;;3.30;;
3712;SDS011;1872;51.406;6.856;2023-08-31T13:49:37;5.90;;;4.20;;
3712;SDS011;1872;51.406;6.856;2023-08-31T13:52:03;3.90;;;3.60;;
3712;SDS011;1872;51.406;6.856;2023-08-31T13:54:31;3.70;;;3.40;;
3712;SDS011;1872;51.406;6.856;2023-08-31T13:56:58;4.20;;;3.80;;
3712;SDS011;1872;51.406;6.856;2023-08-31T13:59:24;4.50;;;4.10;;
3712;SDS011;1872;51.406;6.856;2023-08-31T14:01:53;4.30;;;3.90;;
3712;SDS011;1872;51.406;6.856;2023-08-31T14:04:19;3.67;;;3.33;;
3712;SDS011;1872;51.406;6.856;2023-08-31T14:06:45;3.87;;;3.40;;
3712;SDS011;1872;51.406;6.856;2023-08-31T14:09:10;3.90;;;3.40;;
3712;SDS011;1872;51.406;6.856;2023-08-31T14:11:36;3.10;;;2.80;;
3712;SDS011;1872;51.406;6.856;2023-08-31T14:14:06;4.20;;;3.20;;
3712;SDS011;1872;51.406;6.856;2023-08-31T14:16:35;4.57;;;3.67;;
3712;SDS011;1872;51.406;6.856;2023-08-31T14:19:06;4.22;;;2.88;;
3712;SDS011;1872;51.406;6.856;2023-08-31T14:21:32;4.13;;;3.43;;
3712;SDS011;1872;51.406;6.856;2023-08-31T14:23:58;4.17;;;3.87;;
3712;SDS011;1872;51.406;6.856;2023-08-31T14:26:24;6.83;;;5.10;;
3712;SDS011;1872;51.406;6.856;2023-08-31T14:28:50;7.43;;;4.83;;
3712;SDS011;1872;51.406;6.856;2023-08-31T14:31:16;8.30;;;5.40;;
3712;SDS011;1872;51.406;6.856;2023-08-31T14:33:43;6.90;;;6.20;;
3712;SDS011;1872;51.406;6.856;2023-08-31T14:36:09;8.57;;;6.73;;
3712;SDS011;1872;51.406;6.856;2023-08-31T14:38:35;8.13;;;6.30;;
3712;SDS011;1872;51.406;6.856;2023-08-31T14:41:01;10.37;;;6.50;;
3712;SDS011;1872;51.406;6.856;2023-08-31T14:43:27;7.30;;;6.57;;
3712;SDS011;1872;51.406;6.856;2023-08-31T14:45:52;6.67;;;6.17;;
3712;SDS011;1872;51.406;6.856;2023-08-31T14:48:18;6.17;;;5.67;;
3712;SDS011;1872;51.406;6.856;2023-08-31T14:50:44;7.47;;;5.90;;
3712;SDS011;1872;51.406;6.856;2023-08-31T14:53:09;7.00;;;6.30;;
3712;SDS011;1872;51.406;6.856;2023-08-31T14:55:36;6.90;;;6.30;;
3712;SDS011;1872;51.406;6.856;2023-08-31T14:58:02;8.80;;;7.33;;
3712;SDS011;1872;51.406;6.856;2023-08-31T15:00:30;7.77;;;6.80;;
3712;SDS011;1872;51.406;6.856;2023-08-31T15:02:56;7.50;;;6.80;;
3712;SDS011;1872;51.406;6.856;2023-08-31T15:05:21;7.60;;;6.80;;
3712;SDS011;1872;51.406;6.856;2023-08-31T15:07:50;10.43;;;7.47;;
3712;SDS011;1872;51.406;6.856;2023-08-31T15:10:16;7.83;;;7.13;;
3712;SDS011;1872;51.406;6.856;2023-08-31T15:12:43;7.07;;;6.37;;
3712;SDS011;1872;51.406;6.856;2023-08-31T15:21:52;6.27;;;5.70;;
3712;SDS011;1872;51.406;6.856;2023-08-31T15:24:18;8.73;;;6.13;;
3712;SDS011;1872;51.406;6.856;2023-08-31T15:26:44;7.23;;;6.00;;
3712;SDS011;1872;51.406;6.856;2023-08-31T15:29:09;9.20;;;7.83;;
3712;SDS011;1872;51.406;6.856;2023-08-31T15:31:35;6.67;;;6.07;;
3712;SDS011;1872;51.406;6.856;2023-08-31T15:34:02;9.90;;;6.70;;
3712;SDS011;1872;51.406;6.856;2023-08-31T15:36:31;6.87;;;6.23;;
3712;SDS011;1872;51.406;6.856;2023-08-31T15:38:56;5.70;;;5.20;;
3712;SDS011;1872;51.406;6.856;2023-08-31T15:41:22;6.20;;;5.63;;
3712;SDS011;1872;51.406;6.856;2023-08-31T15:43:48;5.33;;;4.83;;
3712;SDS011;1872;51.406;6.856;2023-08-31T15:46:15;5.40;;;4.90;;
3712;SDS011;1872;51.406;6.856;2023-08-31T15:48:41;5.23;;;4.73;;
3712;SDS011;1872;51.406;6.856;2023-08-31T15:51:08;4.97;;;4.57;;